createdAt,value
2019-05-12T05:09:28.362Z,40.90
2019-05-12T05:11:56.902Z,41.00
2019-05-12T05:14:25.664Z,41.10
2019-05-12T05:16:54.393Z,41.20
2019-05-12T05:19:24.387Z,41.20
2019-05-12T05:21:51.580Z,41.20
2019-05-12T05:24:20.157Z,41.20
2019-05-12T05:26:48.749Z,41.10
2019-05-12T05:31:45.971Z,41.10
2019-05-12T05:34:15.011Z,41.10
2019-05-12T05:36:43.430Z,41.00
2019-05-12T05:39:13.942Z,41.00
2019-05-12T05:41:48.825Z,41.00
2019-05-12T05:44:09.398Z,40.90
2019-05-12T05:46:44.438Z,40.90
2019-05-12T05:49:06.578Z,40.90
2019-05-12T05:51:39.569Z,40.90
2019-05-12T05:54:04.127Z,40.80
2019-05-12T05:56:42.234Z,40.80
2019-05-12T06:04:03.493Z,40.70
2019-05-12T06:06:27.385Z,40.80
2019-05-12T06:08:59.172Z,40.70
2019-05-12T06:11:28.651Z,40.80
2019-05-12T06:13:56.313Z,40.70
2019-05-12T06:16:25.220Z,40.60
2019-05-12T06:18:54.408Z,40.50
2019-05-12T06:21:24.011Z,40.40
2019-05-12T06:23:50.775Z,40.20
2019-05-12T06:26:21.220Z,40.10
2019-05-12T06:28:48.189Z,40.20
2019-05-12T06:31:18.864Z,40.10
2019-05-12T06:33:45.416Z,40.20
2019-05-12T06:36:22.125Z,40.20
2019-05-12T06:38:43.487Z,40.20
2019-05-12T06:43:42.575Z,40.80
2019-05-12T06:46:11.765Z,40.00
2019-05-12T06:48:37.471Z,40.20
2019-05-12T06:51:09.122Z,40.20
2019-05-12T06:53:34.450Z,39.90
2019-05-12T06:56:04.440Z,39.80
2019-05-12T06:58:34.399Z,39.90
2019-05-12T07:01:04.495Z,39.90
2019-05-12T07:03:30.772Z,39.80
2019-05-12T07:05:57.757Z,39.50
2019-05-12T07:08:31.723Z,39.60
2019-05-12T07:11:01.841Z,39.70
2019-05-12T07:15:51.790Z,40.20
2019-05-12T07:18:24.332Z,39.70
2019-05-12T07:20:49.888Z,39.90
2019-05-12T07:23:19.759Z,39.90
2019-05-12T07:25:46.946Z,39.90
2019-05-12T07:28:15.427Z,39.90
2019-05-12T07:30:44.221Z,39.70
2019-05-12T07:33:14.472Z,39.60
2019-05-12T07:35:44.136Z,39.50
2019-05-12T07:40:38.208Z,39.50
2019-05-12T07:43:09.714Z,39.50
2019-05-12T07:45:35.311Z,39.70
2019-05-12T07:48:09.977Z,39.20
2019-05-12T07:50:34.442Z,39.20
2019-05-12T07:53:03.744Z,39.30
2019-05-12T07:58:04.019Z,39.50
2019-05-12T08:00:26.563Z,39.70
2019-05-12T08:02:55.467Z,39.80
2019-05-12T08:05:24.356Z,40.00
2019-05-12T08:07:53.575Z,40.10
2019-05-12T08:10:23.420Z,40.20
2019-05-12T08:12:51.191Z,40.30
2019-05-12T08:15:18.609Z,40.30
2019-05-12T08:17:49.361Z,40.30
2019-05-12T08:20:15.579Z,40.40
2019-05-12T08:22:44.089Z,40.10
2019-05-12T08:27:45.266Z,40.10
2019-05-12T08:30:09.278Z,40.00
2019-05-12T08:32:37.762Z,40.10
2019-05-12T08:35:06.310Z,40.00
2019-05-12T08:37:34.830Z,40.00
2019-05-12T08:40:07.508Z,39.90
2019-05-12T08:42:34.306Z,39.80
2019-05-12T08:45:00.309Z,40.00
2019-05-12T08:47:33.814Z,40.00
2019-05-12T08:49:58.725Z,39.90
2019-05-12T08:52:30.483Z,39.90
2019-05-12T08:54:55.235Z,40.00
2019-05-12T08:57:24.160Z,40.00
2019-05-12T08:59:56.752Z,39.90
2019-05-12T09:02:21.270Z,40.00
2019-05-12T09:04:51.878Z,40.00
2019-05-12T09:07:18.298Z,39.90
2019-05-12T09:09:47.053Z,39.90
2019-05-12T09:12:15.531Z,39.90
2019-05-12T09:17:13.870Z,40.00
2019-05-12T09:22:16.418Z,40.80
2019-05-12T09:24:37.904Z,41.20
2019-05-12T09:27:08.917Z,41.80
2019-05-12T09:29:35.461Z,42.00
2019-05-12T09:32:07.937Z,42.10
2019-05-12T09:34:33.614Z,42.30
2019-05-12T09:37:03.846Z,42.30
2019-05-12T09:39:34.107Z,42.60
2019-05-12T09:41:58.833Z,43.00
2019-05-12T09:44:30.463Z,42.00
2019-05-12T09:46:56.141Z,41.50
2019-05-12T09:49:31.384Z,41.10
2019-05-12T09:51:54.388Z,41.20
2019-05-12T09:54:25.932Z,41.10
2019-05-12T09:56:55.395Z,40.90
2019-05-12T09:59:23.124Z,40.80
2019-05-12T10:01:47.693Z,40.30
2019-05-12T10:04:19.436Z,40.20
2019-05-12T10:06:44.695Z,40.40
2019-05-12T10:09:15.440Z,40.80
2019-05-12T10:11:41.657Z,40.50
2019-05-12T10:14:11.009Z,40.20
2019-05-12T10:16:39.557Z,40.30
2019-05-12T10:19:07.566Z,40.60
2019-05-12T10:21:36.202Z,40.30
2019-05-12T10:24:05.135Z,40.20
2019-05-12T10:26:34.295Z,40.30
2019-05-12T10:29:14.107Z,40.20
2019-05-12T10:31:35.588Z,39.60
2019-05-12T10:34:04.190Z,40.20
2019-05-12T10:36:33.745Z,40.30
2019-05-12T10:39:01.167Z,39.90
2019-05-12T10:41:29.651Z,39.40
2019-05-12T10:43:58.128Z,39.10
2019-05-12T10:46:28.560Z,39.30
2019-05-12T10:48:55.212Z,39.70
2019-05-12T10:51:24.045Z,38.30
2019-05-12T10:58:48.787Z,39.10
2019-05-12T11:01:17.587Z,39.60
2019-05-12T11:03:50.822Z,39.60
2019-05-12T11:06:14.890Z,39.80
2019-05-12T11:08:47.408Z,39.50
2019-05-12T11:11:13.649Z,39.50
2019-05-12T11:16:09.002Z,39.90
2019-05-12T11:18:37.556Z,39.70
2019-05-12T11:21:06.377Z,39.00
2019-05-12T11:23:35.098Z,39.00
2019-05-12T11:26:04.001Z,39.20
2019-05-12T11:28:33.710Z,38.80
2019-05-12T11:31:00.911Z,38.70
2019-05-12T11:33:29.385Z,38.60
2019-05-12T11:35:58.523Z,38.20
2019-05-12T11:40:55.937Z,39.20
2019-05-12T11:43:24.899Z,38.80
2019-05-12T11:45:53.488Z,38.90
2019-05-12T11:48:23.583Z,38.80
2019-05-12T11:50:51.354Z,39.10
2019-05-12T11:53:21.795Z,39.20
2019-05-12T11:55:47.178Z,39.20
2019-05-12T12:00:50.742Z,39.60
2019-05-12T12:03:19.226Z,39.50
2019-05-12T12:05:47.744Z,39.20
2019-05-12T12:08:17.008Z,38.70
2019-05-12T12:10:48.730Z,38.90
2019-05-12T12:13:14.346Z,39.30
2019-05-12T12:15:42.819Z,39.30
2019-05-12T12:18:13.398Z,39.00
2019-05-12T12:20:39.954Z,38.40
2019-05-12T12:25:36.666Z,38.70
2019-05-12T12:28:05.439Z,39.00
2019-05-12T12:30:34.287Z,39.00
2019-05-12T12:35:34.128Z,38.90
2019-05-12T12:38:00.442Z,39.00
2019-05-12T12:40:29.250Z,38.10
2019-05-12T12:42:57.993Z,38.70
2019-05-12T12:45:36.911Z,38.60
2019-05-12T12:48:00.690Z,38.40
2019-05-12T12:50:30.693Z,39.10
2019-05-12T12:55:26.244Z,38.60
2019-05-12T12:57:55.054Z,38.70
2019-05-12T13:00:32.166Z,38.40
2019-05-12T13:02:52.331Z,38.40
2019-05-12T13:05:21.051Z,38.10
2019-05-12T13:07:49.904Z,38.20
2019-05-12T13:10:18.400Z,38.90
2019-05-12T13:12:50.352Z,39.10
2019-05-12T13:15:15.401Z,39.10
2019-05-12T13:17:44.744Z,39.20
2019-05-12T13:22:40.696Z,39.00
2019-05-12T13:25:09.429Z,38.90
2019-05-12T13:30:12.130Z,38.80
2019-05-12T13:32:37.945Z,38.80
2019-05-12T13:35:04.323Z,38.80
2019-05-12T13:37:33.823Z,38.60
2019-05-12T13:42:30.486Z,38.80
2019-05-12T13:47:29.014Z,38.90
2019-05-12T13:49:55.162Z,38.90
2019-05-12T13:52:26.390Z,38.40
2019-05-12T13:54:52.485Z,38.80
2019-05-12T13:57:23.469Z,39.10
2019-05-12T13:59:53.716Z,39.00
2019-05-12T14:02:22.271Z,39.20
2019-05-12T14:04:47.469Z,39.00
2019-05-12T14:09:44.559Z,38.90
2019-05-12T14:12:13.643Z,39.20
2019-05-12T14:17:10.569Z,39.00
2019-05-12T14:27:04.350Z,41.50
2019-05-12T14:29:33.408Z,41.10
2019-05-12T14:32:03.029Z,40.60
2019-05-12T14:34:29.790Z,40.80
2019-05-12T14:37:05.627Z,40.80
2019-05-12T14:39:27.262Z,41.10
2019-05-12T14:41:55.754Z,41.00
2019-05-12T14:44:24.506Z,41.10
2019-05-12T14:46:53.843Z,41.60
2019-05-12T14:49:26.468Z,40.90
2019-05-12T14:51:53.553Z,40.90
2019-05-12T14:56:53.631Z,41.20
2019-05-12T15:01:57.123Z,40.40
2019-05-12T15:04:13.961Z,40.70
2019-05-12T15:06:44.295Z,40.70
2019-05-12T15:09:19.588Z,40.30
2019-05-12T15:11:40.267Z,40.30
2019-05-12T15:14:08.747Z,41.70
2019-05-12T15:16:40.860Z,40.70
2019-05-12T15:19:06.087Z,40.40
2019-05-12T15:21:34.570Z,41.10
2019-05-12T15:24:03.965Z,40.70
2019-05-12T15:26:31.806Z,41.30
2019-05-12T15:29:05.367Z,41.40
2019-05-12T15:31:29.166Z,41.30
2019-05-12T15:33:58.004Z,41.50
2019-05-12T15:36:26.870Z,41.70
2019-05-12T15:38:58.802Z,41.90
2019-05-12T15:43:55.723Z,41.70
2019-05-12T15:46:24.479Z,42.00
2019-05-12T15:48:53.406Z,41.90
2019-05-12T15:53:48.094Z,41.90
2019-05-12T15:56:23.090Z,41.80
2019-05-12T16:03:43.805Z,42.30
2019-05-12T16:06:14.624Z,42.40
2019-05-12T16:08:39.934Z,42.50
2019-05-12T16:13:37.424Z,42.20
2019-05-12T16:16:06.903Z,42.60
2019-05-12T16:18:40.556Z,43.00
2019-05-12T16:21:09.050Z,42.70
2019-05-12T16:23:34.097Z,42.70
2019-05-12T16:26:06.716Z,42.10
2019-05-12T16:28:30.562Z,42.30
2019-05-12T16:31:04.191Z,41.80
2019-05-12T16:33:27.862Z,42.00
2019-05-12T16:35:59.930Z,42.00
2019-05-12T16:38:24.823Z,42.10
2019-05-12T16:40:53.934Z,42.10
2019-05-12T16:45:50.586Z,41.90
2019-05-12T16:48:30.380Z,41.80
2019-05-12T16:50:47.549Z,41.60
2019-05-12T16:53:21.644Z,41.20
2019-05-12T16:55:48.763Z,41.30
2019-05-12T16:58:13.565Z,41.20
2019-05-12T17:00:45.227Z,41.30
2019-05-12T17:03:11.294Z,41.30
2019-05-12T17:05:39.766Z,40.90
2019-05-12T17:08:08.557Z,40.60
2019-05-12T17:10:37.299Z,40.80
2019-05-12T17:13:07.426Z,40.90
2019-05-12T17:18:04.432Z,40.50
2019-05-12T17:20:33.355Z,40.30
2019-05-12T17:23:03.257Z,40.30
2019-05-12T17:25:29.873Z,40.00
2019-05-12T17:30:27.052Z,39.70
2019-05-12T17:33:01.397Z,39.80
2019-05-12T17:35:26.972Z,39.70
2019-05-12T17:37:53.555Z,39.60
2019-05-12T17:40:21.527Z,39.50
2019-05-12T17:42:50.181Z,39.60
2019-05-12T17:45:20.521Z,39.60
2019-05-12T17:47:47.137Z,39.40
2019-05-12T17:50:15.857Z,40.10
2019-05-12T17:52:45.368Z,39.20
2019-05-12T17:57:43.802Z,39.60
2019-05-12T18:00:10.996Z,39.00
2019-05-12T18:02:39.602Z,39.30
2019-05-12T18:05:12.319Z,39.20
2019-05-12T18:07:37.193Z,39.10
2019-05-12T18:12:41.825Z,38.80
2019-05-12T18:15:04.241Z,38.90
2019-05-12T18:17:30.900Z,38.90
2019-05-12T18:20:01.101Z,39.00
2019-05-12T18:22:28.481Z,38.60
2019-05-12T18:24:57.309Z,39.50
2019-05-12T18:27:26.078Z,40.00
2019-05-12T18:32:24.428Z,40.00
2019-05-12T18:34:53.771Z,40.70
2019-05-12T18:37:20.486Z,40.50
2019-05-12T18:39:49.286Z,40.60
2019-05-12T18:42:18.402Z,41.00
2019-05-12T18:44:46.949Z,41.40
2019-05-12T18:47:16.997Z,41.10
2019-05-12T18:49:47.715Z,41.70
2019-05-12T18:52:14.556Z,41.50
2019-05-12T18:57:10.135Z,41.20
2019-05-12T18:59:38.602Z,41.10
2019-05-12T19:02:07.094Z,40.90
2019-05-12T19:04:39.769Z,40.90
2019-05-12T19:07:05.221Z,40.40
2019-05-12T19:09:33.702Z,40.60
2019-05-12T19:14:37.135Z,40.80
2019-05-12T19:19:28.008Z,41.30
2019-05-12T19:22:04.793Z,41.00
2019-05-12T19:24:24.806Z,41.20
2019-05-12T19:26:54.158Z,41.40
2019-05-12T19:29:24.136Z,41.70
2019-05-12T19:31:52.379Z,42.30
2019-05-12T19:34:22.807Z,41.70
2019-05-12T19:36:49.429Z,41.50
2019-05-12T19:41:44.841Z,42.10
2019-05-12T19:44:13.591Z,42.00
2019-05-12T19:46:47.675Z,41.90
2019-05-12T19:49:10.279Z,42.10
2019-05-12T19:51:38.761Z,41.80
2019-05-12T19:54:07.599Z,41.80
2019-05-12T19:56:39.569Z,42.20
2019-05-12T19:59:04.550Z,42.10
2019-05-12T20:01:34.392Z,42.10
2019-05-12T20:04:03.624Z,42.30
2019-05-12T20:06:30.387Z,42.20
2019-05-12T20:11:31.320Z,42.60
2019-05-12T20:13:56.106Z,42.20
2019-05-12T20:16:30.213Z,42.20
2019-05-12T20:18:57.671Z,42.30
2019-05-12T20:21:26.065Z,42.60
2019-05-12T20:23:51.050Z,42.30
2019-05-12T20:26:19.533Z,42.40
2019-05-12T20:28:50.458Z,42.50
2019-05-12T20:31:17.268Z,42.40
2019-05-12T20:33:45.753Z,42.60
2019-05-12T20:36:14.350Z,42.60
2019-05-12T20:38:44.390Z,42.60
2019-05-12T20:41:21.893Z,42.50
2019-05-12T20:43:42.027Z,43.50
2019-05-12T20:46:13.032Z,42.70
2019-05-12T20:48:36.958Z,42.80
2019-05-12T20:51:08.868Z,42.90
2019-05-12T20:53:36.579Z,42.80
2019-05-12T20:56:03.683Z,42.80
